createdAt,value
2018-03-25T00:01:07.749Z,99945.77
2018-03-25T00:03:33.960Z,99941.89
2018-03-25T00:06:00.115Z,99948.38
2018-03-25T00:08:26.164Z,99944.14
2018-03-25T00:10:52.215Z,99946.27
2018-03-25T00:13:18.312Z,99949.72
2018-03-25T00:15:44.474Z,99948.89
2018-03-25T00:18:10.557Z,99955.80
2018-03-25T00:20:36.669Z,99949.35
2018-03-25T00:23:02.719Z,99953.66
2018-03-25T00:25:28.758Z,99956.27
2018-03-25T00:27:54.857Z,99949.36
2018-03-25T00:30:20.934Z,99950.66
2018-03-25T00:32:47.232Z,99947.23
2018-03-25T00:35:13.269Z,99950.69
2018-03-25T00:37:39.449Z,99946.81
2018-03-25T00:40:05.553Z,99940.81
2018-03-25T00:42:31.603Z,99942.99
2018-03-25T00:44:57.772Z,99950.74
2018-03-25T00:47:23.818Z,99943.85
2018-03-25T00:49:49.924Z,99945.99
2018-03-25T00:52:16.141Z,99947.73
2018-03-25T00:54:42.199Z,99942.16
2018-03-25T00:57:08.280Z,99946.90
2018-03-25T00:59:34.314Z,99946.03
2018-03-25T01:02:00.403Z,99943.88
2018-03-25T01:04:26.463Z,99947.33
2018-03-25T01:06:52.638Z,99945.60
2018-03-25T01:09:18.717Z,99944.31
2018-03-25T01:11:45.181Z,99945.19
2018-03-25T01:14:11.381Z,99943.05
2018-03-25T01:16:37.434Z,99948.20
2018-03-25T01:19:03.478Z,99946.91
2018-03-25T01:21:29.527Z,99944.33
2018-03-25T01:23:55.623Z,99940.03
2018-03-25T01:26:21.769Z,99944.31
2018-03-25T01:28:47.854Z,99933.13
2018-03-25T01:31:13.940Z,99941.75
2018-03-25T01:33:39.983Z,99946.06
2018-03-25T01:36:06.034Z,99945.20
2018-03-25T01:38:32.105Z,99940.47
2018-03-25T01:40:58.280Z,99938.77
2018-03-25T01:43:24.517Z,99940.46
2018-03-25T01:45:50.579Z,99941.78
2018-03-25T01:48:16.869Z,99935.31
2018-03-25T01:50:42.920Z,99936.59
2018-03-25T01:53:09.009Z,99938.30
2018-03-25T01:55:35.055Z,99937.86
2018-03-25T01:58:01.102Z,99936.16
2018-03-25T02:00:27.327Z,99936.19
2018-03-25T02:02:53.369Z,99933.16
2018-03-25T02:05:19.614Z,99932.74
2018-03-25T02:07:45.993Z,99929.73
2018-03-25T02:10:12.029Z,99923.71
2018-03-25T02:12:38.094Z,99927.58
2018-03-25T02:15:04.344Z,99934.91
2018-03-25T02:17:30.385Z,99928.43
2018-03-25T02:19:56.507Z,99937.48
2018-03-25T02:22:22.517Z,99939.19
2018-03-25T02:24:48.576Z,99934.05
2018-03-25T02:27:14.879Z,99939.63
2018-03-25T02:29:41.006Z,99932.33
2018-03-25T02:32:07.076Z,99936.61
2018-03-25T02:34:33.110Z,99936.62
2018-03-25T02:36:59.153Z,99939.20
2018-03-25T02:39:25.209Z,99941.79
2018-03-25T02:41:51.421Z,99943.48
2018-03-25T02:44:17.457Z,99941.34
2018-03-25T02:46:43.622Z,99946.09
2018-03-25T02:49:09.744Z,99944.35
2018-03-25T02:51:35.790Z,99945.22
2018-03-25T02:54:02.073Z,99944.37
2018-03-25T02:56:28.118Z,99952.95
2018-03-25T02:58:54.179Z,99955.98
2018-03-25T03:01:20.252Z,99951.25
2018-03-25T03:03:46.400Z,99957.70
2018-03-25T03:06:12.411Z,99957.25
2018-03-25T03:08:38.447Z,99954.27
2018-03-25T03:11:04.540Z,99962.43
2018-03-25T03:13:30.617Z,99963.72
2018-03-25T03:15:56.693Z,99964.14
2018-03-25T03:18:22.746Z,99962.84
2018-03-25T03:20:48.758Z,99963.27
2018-03-25T03:23:14.857Z,99969.73
2018-03-25T03:25:40.916Z,99976.17
2018-03-25T03:28:06.954Z,99977.45
2018-03-25T03:30:33.100Z,99961.56
2018-03-25T03:32:59.158Z,99969.30
2018-03-25T03:35:25.188Z,99969.72
2018-03-25T03:37:51.378Z,99975.31
2018-03-25T03:40:17.404Z,99971.88
2018-03-25T03:42:43.647Z,99972.74
2018-03-25T03:45:09.715Z,99976.63
2018-03-25T03:47:35.734Z,99972.75
2018-03-25T03:50:01.821Z,99976.63
2018-03-25T03:52:27.901Z,99975.34
2018-03-25T03:54:54.102Z,99980.08
2018-03-25T03:57:20.152Z,99976.19
2018-03-25T03:59:46.204Z,99984.78
2018-03-25T04:02:12.272Z,99987.38
2018-03-25T04:04:38.340Z,99988.66
2018-03-25T04:07:04.403Z,99993.83
2018-03-25T04:09:30.432Z,99991.24
2018-03-25T04:11:56.470Z,99995.98
2018-03-25T04:14:22.561Z,99991.66
2018-03-25T04:16:48.652Z,100000.27
2018-03-25T04:19:14.697Z,100000.68
2018-03-25T04:21:40.759Z,99998.94
2018-03-25T04:24:06.843Z,100003.67
2018-03-25T04:26:32.884Z,99996.33
2018-03-25T04:28:58.962Z,99990.72
2018-03-25T04:31:25.015Z,99998.05
2018-03-25T04:33:51.051Z,99996.30
2018-03-25T04:36:17.128Z,99992.85
2018-03-25T04:38:43.170Z,99993.28
2018-03-25T04:41:09.420Z,99995.86
2018-03-25T04:43:35.492Z,99993.27
2018-03-25T04:46:01.539Z,99995.87
2018-03-25T04:48:27.602Z,99991.97
2018-03-25T04:50:53.695Z,99996.74
2018-03-25T04:53:19.757Z,99994.58
2018-03-25T04:55:45.789Z,99997.59
2018-03-25T04:58:12.187Z,100001.46
2018-03-25T05:00:38.224Z,100001.03
2018-03-25T05:03:04.318Z,99994.13
2018-03-25T05:05:30.337Z,99996.25
2018-03-25T05:07:56.424Z,99999.23
2018-03-25T05:10:22.562Z,100000.11
2018-03-25T05:12:48.670Z,99994.08
2018-03-25T05:15:14.768Z,99995.36
2018-03-25T05:17:40.876Z,99994.92
2018-03-25T05:20:06.955Z,99996.65
2018-03-25T05:22:32.982Z,99994.91
2018-03-25T05:24:59.066Z,99993.61
2018-03-25T05:27:25.143Z,100000.52
2018-03-25T05:29:51.183Z,100000.05
2018-03-25T05:32:17.231Z,100000.91
2018-03-25T05:34:43.272Z,100001.33
2018-03-25T05:37:09.347Z,100003.50
2018-03-25T05:39:35.485Z,100005.64
2018-03-25T05:42:01.570Z,100007.76
2018-03-25T05:44:27.600Z,100008.19
2018-03-25T05:46:53.657Z,100012.92
2018-03-25T05:49:19.704Z,100004.30
2018-03-25T05:51:45.897Z,100015.03
2018-03-25T05:54:12.024Z,100012.03
2018-03-25T05:56:38.068Z,100017.19
2018-03-25T05:59:04.116Z,100019.33
2018-03-25T06:01:30.172Z,100023.64
2018-03-25T06:03:56.549Z,100033.09
2018-03-25T06:06:22.640Z,100037.39
2018-03-25T06:08:48.748Z,100036.10
2018-03-25T06:11:14.771Z,100037.80
2018-03-25T06:13:40.880Z,100040.84
2018-03-25T06:16:06.918Z,100035.22
2018-03-25T06:18:32.958Z,100036.91
2018-03-25T06:20:59.110Z,100042.53
2018-03-25T06:23:25.223Z,100038.16
2018-03-25T06:25:51.971Z,100035.12
2018-03-25T06:28:18.035Z,100044.55
2018-03-25T06:30:44.079Z,100048.43
2018-03-25T06:33:10.322Z,100054.86
2018-03-25T06:35:36.380Z,100052.28
2018-03-25T06:38:02.445Z,100050.93
2018-03-25T06:40:28.609Z,100053.92
2018-03-25T06:42:54.649Z,100062.59
2018-03-25T06:45:20.867Z,100058.67
2018-03-25T06:47:46.923Z,100062.56
2018-03-25T06:50:13.348Z,100060.76
2018-03-25T06:52:39.425Z,100062.84
2018-03-25T06:55:05.461Z,100064.97
2018-03-25T06:57:31.522Z,100069.67
2018-03-25T06:59:57.554Z,100073.55
2018-03-25T07:02:23.656Z,100070.10
2018-03-25T07:04:49.712Z,100077.37
2018-03-25T07:07:15.819Z,100078.22
2018-03-25T07:09:41.885Z,100075.19
2018-03-25T07:12:08.453Z,100073.91
2018-03-25T07:14:34.532Z,100070.87
2018-03-25T07:17:00.764Z,100082.02
2018-03-25T07:19:26.840Z,100078.09
2018-03-25T07:21:52.873Z,100078.45
2018-03-25T07:24:18.966Z,100090.53
2018-03-25T07:26:45.032Z,100088.73
2018-03-25T07:29:11.334Z,100095.63
2018-03-25T07:31:37.382Z,100094.30
2018-03-25T07:34:03.397Z,100098.27
2018-03-25T07:36:29.492Z,100099.52
2018-03-25T07:38:55.579Z,100106.01
2018-03-25T07:41:21.647Z,100105.55
2018-03-25T07:43:47.736Z,100106.84
2018-03-25T07:46:13.851Z,100113.81
2018-03-25T07:48:39.896Z,100105.14
2018-03-25T07:51:05.973Z,100112.89
2018-03-25T07:53:32.223Z,100109.41
2018-03-25T07:55:58.291Z,100114.92
2018-03-25T07:58:24.427Z,100112.30
2018-03-25T08:00:50.519Z,100116.95
2018-03-25T08:03:16.559Z,100116.93
2018-03-25T08:05:42.599Z,100117.69
2018-03-25T08:08:08.680Z,100121.49
2018-03-25T08:10:34.904Z,100116.23
2018-03-25T08:13:00.973Z,100118.35
2018-03-25T08:15:27.167Z,100119.17
2018-03-25T08:17:53.200Z,100115.62
2018-03-25T08:20:19.386Z,100117.23
2018-03-25T08:22:45.412Z,100118.34
2018-03-25T08:25:11.466Z,100121.67
2018-03-25T08:27:37.611Z,100123.45
2018-03-25T08:30:03.723Z,100126.88
2018-03-25T08:32:29.792Z,100126.44
2018-03-25T08:34:55.886Z,100122.39
2018-03-25T08:37:21.993Z,100119.56
2018-03-25T08:39:48.079Z,100129.36
2018-03-25T08:42:14.174Z,100128.28
2018-03-25T08:44:40.275Z,100134.22
2018-03-25T08:47:06.290Z,100126.41
2018-03-25T08:49:32.353Z,100129.64
2018-03-25T08:51:58.491Z,100129.65
2018-03-25T08:54:24.513Z,100134.41
2018-03-25T08:56:50.699Z,100135.96
2018-03-25T08:59:16.749Z,100135.37
2018-03-25T09:01:42.830Z,100131.31
2018-03-25T09:04:08.867Z,100130.89
2018-03-25T09:06:34.953Z,100136.00
2018-03-25T09:09:01.269Z,100132.07
2018-03-25T09:11:27.318Z,100133.23
2018-03-25T09:13:53.388Z,100125.41
2018-03-25T09:16:19.558Z,100127.41
2018-03-25T09:18:45.809Z,100116.80
2018-03-25T09:21:11.845Z,100118.27
2018-03-25T09:23:37.937Z,100122.05
2018-03-25T09:26:04.141Z,100121.59
2018-03-25T09:28:30.321Z,100123.50
2018-03-25T09:30:56.396Z,100119.10
2018-03-25T09:36:18.207Z,100118.54
2018-03-25T09:38:44.235Z,100121.42
2018-03-25T09:41:10.415Z,100115.17
2018-03-25T09:43:36.487Z,100115.23
2018-03-25T09:46:02.644Z,100113.76
2018-03-25T09:48:28.744Z,100118.02
2018-03-25T09:50:54.768Z,100115.67
2018-03-25T09:53:20.850Z,100119.97
2018-03-25T09:55:47.035Z,100124.25
2018-03-25T09:58:13.095Z,100122.11
2018-03-25T10:00:39.236Z,100119.06
2018-03-25T10:03:11.476Z,100123.56
2018-03-25T10:05:37.558Z,100123.09
2018-03-25T10:08:03.675Z,100123.49
2018-03-25T10:10:29.880Z,100124.33
2018-03-25T10:12:55.945Z,100125.08
2018-03-25T10:15:22.040Z,100127.91
2018-03-25T10:17:48.123Z,100133.84
2018-03-25T10:20:14.297Z,100127.41
2018-03-25T10:22:40.384Z,100123.09
2018-03-25T10:25:06.414Z,100131.50
2018-03-25T10:27:32.476Z,100126.18
2018-03-25T10:29:58.552Z,100130.20
2018-03-25T10:32:24.679Z,100132.11
2018-03-25T10:34:50.768Z,100131.14
2018-03-25T10:37:16.824Z,100132.84
2018-03-25T10:39:42.872Z,100126.74
2018-03-25T10:42:09.010Z,100132.67
2018-03-25T10:44:35.034Z,100136.95
2018-03-25T10:47:01.112Z,100131.81
2018-03-25T10:49:27.351Z,100132.77
2018-03-25T10:51:53.631Z,100127.46
2018-03-25T10:54:19.869Z,100121.72
2018-03-25T10:56:46.051Z,100120.81
2018-03-25T10:59:12.215Z,100115.79
2018-03-25T11:01:38.676Z,100113.62
2018-03-25T11:04:04.862Z,100122.70
2018-03-25T11:06:31.088Z,100117.70
2018-03-25T11:08:57.259Z,100118.92
2018-03-25T11:11:23.549Z,100116.67
2018-03-25T11:13:49.704Z,100115.63
2018-03-25T11:16:15.954Z,100119.98
2018-03-25T11:18:42.099Z,100106.62
2018-03-25T11:21:08.151Z,100114.91
2018-03-25T11:23:34.239Z,100121.55
2018-03-25T11:26:00.320Z,100115.23
2018-03-25T11:28:26.404Z,100112.05
2018-03-25T11:30:52.677Z,100115.11
2018-03-25T11:33:18.713Z,100117.05
2018-03-25T11:35:45.112Z,100106.52
2018-03-25T11:38:11.148Z,100104.54
2018-03-25T11:40:37.469Z,100103.50
2018-03-25T11:43:03.715Z,100114.33
2018-03-25T11:45:29.906Z,100117.41
2018-03-25T11:47:56.055Z,100109.49
2018-03-25T11:50:22.153Z,100105.44
2018-03-25T11:52:48.338Z,100107.23
2018-03-25T11:55:14.528Z,100110.59
2018-03-25T11:57:40.607Z,100104.09
2018-03-25T12:00:06.792Z,100110.50
2018-03-25T12:02:32.856Z,100105.88
2018-03-25T12:04:58.891Z,100113.47
2018-03-25T12:07:24.958Z,100115.84
2018-03-25T12:09:50.990Z,100121.09
2018-03-25T12:12:17.111Z,100120.75
2018-03-25T12:14:43.290Z,100112.84
2018-03-25T12:17:09.440Z,100121.77
2018-03-25T12:19:35.593Z,100115.05
2018-03-25T12:22:01.702Z,100112.27
2018-03-25T12:24:27.973Z,100111.84
2018-03-25T12:26:54.221Z,100117.22
2018-03-25T12:29:20.274Z,100113.88
2018-03-25T12:31:46.351Z,100119.59
2018-03-25T12:34:12.401Z,100117.66
2018-03-25T12:36:38.430Z,100108.88
2018-03-25T12:39:04.535Z,100114.92
2018-03-25T12:41:30.690Z,100100.27
2018-03-25T12:43:56.745Z,100087.23
2018-03-25T12:46:22.905Z,100099.30
2018-03-25T12:48:48.934Z,100091.42
2018-03-25T12:51:15.094Z,100099.58
2018-03-25T12:53:41.202Z,100101.45
2018-03-25T12:56:07.280Z,100103.72
2018-03-25T12:58:33.404Z,100105.98
2018-03-25T13:01:00.235Z,100114.64
2018-03-25T13:03:26.333Z,100109.03
2018-03-25T13:05:52.407Z,100110.80
2018-03-25T13:08:18.456Z,100107.27
2018-03-25T13:10:44.497Z,100114.00
2018-03-25T13:13:10.554Z,100111.84
2018-03-25T13:15:51.659Z,100106.61
2018-03-25T13:18:17.761Z,100107.66
2018-03-25T13:20:44.578Z,100107.12
2018-03-25T13:23:10.710Z,100109.30
2018-03-25T13:25:37.607Z,100110.19
2018-03-25T13:28:04.271Z,100108.54
2018-03-25T13:30:30.636Z,100114.22
2018-03-25T13:32:56.853Z,100111.89
2018-03-25T13:35:22.986Z,100115.48
2018-03-25T13:37:49.042Z,100116.75
2018-03-25T13:40:15.166Z,100118.84
2018-03-25T13:42:41.294Z,100117.52
2018-03-25T13:45:07.361Z,100114.81
2018-03-25T13:47:33.470Z,100116.27
2018-03-25T13:49:59.503Z,100125.09
2018-03-25T13:52:25.733Z,100126.02
2018-03-25T13:54:51.792Z,100123.94
2018-03-25T13:57:17.916Z,100129.47
2018-03-25T13:59:44.014Z,100124.61
2018-03-25T14:02:10.308Z,100126.31
2018-03-25T14:04:36.397Z,100124.89
2018-03-25T14:07:02.684Z,100126.20
2018-03-25T14:09:28.761Z,100119.95
2018-03-25T14:11:54.798Z,100119.84
2018-03-25T14:14:20.855Z,100121.98
2018-03-25T14:16:46.990Z,100121.45
2018-03-25T14:19:13.219Z,100127.33
2018-03-25T14:21:39.270Z,100119.80
2018-03-25T14:24:05.295Z,100123.11
2018-03-25T14:26:31.744Z,100122.28
2018-03-25T14:28:57.774Z,100121.07
2018-03-25T14:31:23.932Z,100121.38
2018-03-25T14:33:50.039Z,100126.75
2018-03-25T14:36:16.466Z,100116.80
2018-03-25T14:38:42.502Z,100116.13
2018-03-25T14:41:08.659Z,100125.09
2018-03-25T14:43:34.742Z,100117.91
2018-03-25T14:46:00.863Z,100119.89
2018-03-25T14:48:26.959Z,100113.00
2018-03-25T14:50:53.040Z,100113.98
2018-03-25T14:53:19.203Z,100123.34
2018-03-25T14:55:45.275Z,100115.58
2018-03-25T14:58:11.408Z,100122.58
2018-03-25T15:00:37.518Z,100121.75
2018-03-25T15:03:03.706Z,100113.39
2018-03-25T15:05:29.826Z,100115.09
2018-03-25T15:07:55.976Z,100116.45
2018-03-25T15:10:22.041Z,100118.21
2018-03-25T15:12:48.449Z,100115.92
2018-03-25T15:15:14.533Z,100114.66
2018-03-25T15:17:40.789Z,100114.22
2018-03-25T15:20:06.936Z,100119.75
2018-03-25T15:22:33.005Z,100121.03
2018-03-25T15:24:59.212Z,100123.35
2018-03-25T15:27:25.472Z,100120.69
2018-03-25T15:29:51.682Z,100116.13
2018-03-25T15:32:17.987Z,100125.15
2018-03-25T15:34:44.280Z,100128.30
2018-03-25T15:37:10.351Z,100128.87
2018-03-25T15:39:36.483Z,100125.91
2018-03-25T15:42:02.582Z,100127.61
2018-03-25T15:44:28.678Z,100131.63
2018-03-25T15:46:54.784Z,100129.49
2018-03-25T15:49:20.841Z,100135.46
2018-03-25T15:51:47.176Z,100129.31
2018-03-25T15:54:13.240Z,100123.20
2018-03-25T15:56:39.412Z,100128.05
2018-03-25T15:59:05.484Z,100127.70
2018-03-25T16:01:31.547Z,100126.00
2018-03-25T16:03:57.681Z,100128.80
2018-03-25T16:06:23.869Z,100128.23
2018-03-25T16:08:50.078Z,100127.27
2018-03-25T16:11:16.238Z,100126.17
2018-03-25T16:13:43.097Z,100141.20
2018-03-25T16:16:09.491Z,100130.38
2018-03-25T16:18:35.611Z,100136.55
2018-03-25T16:21:01.698Z,100138.02
2018-03-25T16:23:27.754Z,100145.89
2018-03-25T16:25:54.036Z,100142.00
2018-03-25T16:28:20.063Z,100140.12
2018-03-25T16:30:46.147Z,100136.67
2018-03-25T16:33:12.376Z,100141.13
2018-03-25T16:35:38.443Z,100140.03
2018-03-25T16:38:04.712Z,100145.98
2018-03-25T16:40:30.850Z,100149.67
2018-03-25T16:42:56.992Z,100151.16
2018-03-25T16:45:24.019Z,100156.52
2018-03-25T16:47:50.265Z,100158.66
2018-03-25T16:50:16.303Z,100157.73
2018-03-25T16:52:42.738Z,100158.48
2018-03-25T16:55:08.814Z,100159.27
2018-03-25T16:57:34.870Z,100161.92
2018-03-25T17:00:01.170Z,100159.79
2018-03-25T17:02:28.184Z,100168.69
2018-03-25T17:04:54.550Z,100169.43
2018-03-25T17:07:20.638Z,100172.97
2018-03-25T17:09:47.103Z,100168.04
2018-03-25T17:12:13.324Z,100171.84
2018-03-25T17:14:39.690Z,100165.94
2018-03-25T17:17:05.769Z,100173.84
2018-03-25T17:19:32.111Z,100178.29
2018-03-25T17:21:58.281Z,100176.19
2018-03-25T17:24:25.337Z,100185.99
2018-03-25T17:26:51.400Z,100185.47
2018-03-25T17:29:17.612Z,100187.62
2018-03-25T17:31:44.487Z,100186.66
2018-03-25T17:34:10.778Z,100188.14
2018-03-25T17:36:37.076Z,100189.13
2018-03-25T17:39:03.196Z,100197.53
2018-03-25T17:41:29.378Z,100195.23
2018-03-25T17:43:55.396Z,100197.97
2018-03-25T17:46:21.657Z,100193.77
2018-03-25T17:48:47.879Z,100195.44
2018-03-25T17:51:14.149Z,100195.98
2018-03-25T17:53:40.442Z,100205.66
2018-03-25T17:56:06.780Z,100203.52
2018-03-25T17:58:33.038Z,100205.78
2018-03-25T18:00:59.141Z,100204.59
2018-03-25T18:03:25.237Z,100210.34
2018-03-25T18:05:51.372Z,100212.20
2018-03-25T18:08:17.472Z,100217.43
2018-03-25T18:10:43.758Z,100212.31
2018-03-25T18:13:09.848Z,100212.70
2018-03-25T18:15:35.982Z,100220.20
2018-03-25T18:18:02.204Z,100231.58
2018-03-25T18:20:29.238Z,100233.43
2018-03-25T18:22:55.918Z,100238.73
2018-03-25T18:25:21.999Z,100240.12
2018-03-25T18:27:48.105Z,100242.30
2018-03-25T18:30:14.185Z,100234.96
2018-03-25T18:32:40.613Z,100242.34
2018-03-25T18:35:06.732Z,100247.13
2018-03-25T18:37:33.172Z,100252.48
2018-03-25T18:39:59.315Z,100256.22
2018-03-25T18:42:25.428Z,100260.82
2018-03-25T18:44:51.523Z,100262.89
2018-03-25T18:47:17.588Z,100259.41
2018-03-25T18:49:43.656Z,100267.76
2018-03-25T18:52:10.123Z,100266.66
2018-03-25T18:54:36.309Z,100269.27
2018-03-25T18:57:02.395Z,100264.05
2018-03-25T18:59:28.759Z,100271.30
2018-03-25T19:01:54.879Z,100269.52
2018-03-25T19:04:21.022Z,100267.84
2018-03-25T19:06:47.200Z,100274.58
2018-03-25T19:09:13.471Z,100276.16
2018-03-25T19:11:39.584Z,100272.09
2018-03-25T19:14:05.872Z,100269.89
2018-03-25T19:16:32.466Z,100274.41
2018-03-25T19:18:58.615Z,100276.28
2018-03-25T19:21:25.368Z,100277.34
2018-03-25T19:23:51.807Z,100283.11
2018-03-25T19:26:17.934Z,100281.98
2018-03-25T19:28:44.003Z,100275.55
2018-03-25T19:31:10.346Z,100275.67
2018-03-25T19:33:36.513Z,100281.83
2018-03-25T19:36:02.602Z,100281.80
2018-03-25T19:38:28.751Z,100278.47
2018-03-25T19:40:55.981Z,100283.32
2018-03-25T19:43:22.157Z,100285.13
2018-03-25T19:45:48.269Z,100283.06
2018-03-25T19:48:14.693Z,100284.87
2018-03-25T19:50:40.766Z,100292.30
2018-03-25T19:53:07.033Z,100291.86
2018-03-25T19:55:33.172Z,100286.27
2018-03-25T19:57:59.374Z,100290.67
2018-03-25T20:00:28.420Z,100291.55
2018-03-25T20:02:54.513Z,100293.72
2018-03-25T20:05:20.628Z,100296.83
2018-03-25T20:07:47.080Z,100291.69
2018-03-25T20:10:13.136Z,100299.20
2018-03-25T20:12:39.249Z,100306.69
2018-03-25T20:15:06.415Z,100305.81
2018-03-25T20:17:32.538Z,100304.09
2018-03-25T20:19:58.630Z,100303.72
2018-03-25T20:22:24.836Z,100307.69
2018-03-25T20:24:50.989Z,100308.56
2018-03-25T20:27:17.820Z,100309.45
2018-03-25T20:29:44.007Z,100311.23
2018-03-25T20:32:10.105Z,100306.41
2018-03-25T20:34:36.482Z,100312.50
2018-03-25T20:37:02.567Z,100312.50
2018-03-25T20:39:28.749Z,100310.41
2018-03-25T20:41:54.867Z,100314.79
2018-03-25T20:44:20.949Z,100320.96
2018-03-25T20:46:47.071Z,100320.96
2018-03-25T20:49:13.361Z,100314.79
2018-03-25T20:51:40.122Z,100318.37
2018-03-25T20:54:06.409Z,100312.39
2018-03-25T20:56:32.462Z,100309.92
2018-03-25T20:58:58.624Z,100317.80
2018-03-25T21:01:24.677Z,100320.89
2018-03-25T21:03:50.794Z,100327.88
2018-03-25T21:06:16.879Z,100328.72
2018-03-25T21:08:43.077Z,100316.47
2018-03-25T21:14:02.422Z,100332.61
2018-03-25T21:16:28.502Z,100328.56
2018-03-25T21:18:54.590Z,100330.98
2018-03-25T21:21:20.673Z,100330.85
2018-03-25T21:23:46.974Z,100329.00
2018-03-25T21:26:13.050Z,100333.30
2018-03-25T21:28:39.178Z,100333.33
2018-03-25T21:31:05.362Z,100343.36
2018-03-25T21:33:31.391Z,100345.48
2018-03-25T21:35:57.435Z,100346.77
2018-03-25T21:38:23.578Z,100355.00
2018-03-25T21:40:49.642Z,100349.31
2018-03-25T21:43:15.654Z,100351.52
2018-03-25T21:45:41.797Z,100343.23
2018-03-25T21:48:07.876Z,100340.23
2018-03-25T21:50:34.042Z,100335.48
2018-03-25T21:53:00.143Z,100325.97
2018-03-25T21:55:26.218Z,100330.36
2018-03-25T21:57:52.451Z,100321.83
2018-03-25T22:00:18.473Z,100324.98
2018-03-25T22:02:44.579Z,100331.09
2018-03-25T22:05:10.635Z,100334.63
2018-03-25T22:07:36.670Z,100331.56
2018-03-25T22:10:02.764Z,100336.88
2018-03-25T22:12:28.853Z,100346.38
2018-03-25T22:14:54.960Z,100348.59
2018-03-25T22:17:21.075Z,100346.86
2018-03-25T22:19:47.127Z,100349.88
2018-03-25T22:22:13.276Z,100345.94
2018-03-25T22:24:39.352Z,100345.58
2018-03-25T22:27:05.409Z,100344.70
2018-03-25T22:29:31.579Z,100349.91
2018-03-25T22:31:57.629Z,100351.20
2018-03-25T22:34:23.958Z,100355.71
2018-03-25T22:36:50.008Z,100358.38
2018-03-25T22:39:16.106Z,100360.98
2018-03-25T22:41:42.315Z,100361.36
2018-03-25T22:44:08.423Z,100359.57
2018-03-25T22:46:34.471Z,100360.39
2018-03-25T22:49:00.635Z,100362.17
2018-03-25T22:51:26.847Z,100365.69
2018-03-25T22:53:52.983Z,100361.41
2018-03-25T22:56:19.073Z,100369.67
2018-03-25T22:58:45.127Z,100374.91
2018-03-25T23:01:11.168Z,100369.28
2018-03-25T23:03:37.265Z,100371.09
2018-03-25T23:06:03.384Z,100369.80
2018-03-25T23:08:29.461Z,100364.62
2018-03-25T23:10:55.471Z,100368.53
2018-03-25T23:13:21.536Z,100366.41
2018-03-25T23:15:47.740Z,100358.20
2018-03-25T23:18:13.769Z,100366.90
2018-03-25T23:20:39.853Z,100369.09
2018-03-25T23:23:05.900Z,100365.18
2018-03-25T23:25:31.941Z,100367.43
2018-03-25T23:27:58.023Z,100362.26
2018-03-25T23:30:24.074Z,100358.81
2018-03-25T23:32:50.142Z,100359.28
2018-03-25T23:35:16.239Z,100361.53
2018-03-25T23:37:42.259Z,100361.98
2018-03-25T23:40:08.404Z,100359.05
2018-03-25T23:42:34.506Z,100359.98
2018-03-25T23:45:00.598Z,100365.33
2018-03-25T23:47:26.667Z,100362.37
2018-03-25T23:49:52.820Z,100362.81
2018-03-25T23:52:18.894Z,100361.14
2018-03-25T23:54:44.906Z,100362.40
2018-03-25T23:57:10.996Z,100366.83
2018-03-25T23:59:37.041Z,100364.69
